Hondarribia, Spain

12:22 AM CEST on October 24, 2014 (GMT +0200)
Irun Azken Portu | Change Station
CLOSE
Current Station
Personal Weather Station
Location: Irun, PV
Elevation: 0 m
Nearby Weather Stations

Elev 0 m 43.34 °N, 1.78 °W | Updated 2 minutes ago

Clear
Clear
10.9 °C
Feels Like 10.9 °C
N
0.0
Wind Variable Wind from SW
Gusts 0.0 km/h

Today
High -- | Low -- °C
--% Chance of Precip.
Yesterday
High -- | Low -- °C
Precip. -- mm
8:31 AM 7:10 PM
New Moon, 0% visible
Pressure 1023 hPa
Visibility 10.0 kilometers
Clouds
Dew Point 9 °C
Humidity 88%
Rainfall 0 mm
Snow Depth Not available.
UV Not available.
Pollen Not available.
Air Quality Not available.
Flu Activity Not available.
METAR LFBZ 232200Z AUTO 15005KT 9999 NSC 11/06 Q1023

More Conditions Fewer Conditions

Pressure 1023 hPa
Visibility 10.0 kilometers
Clouds
Dew Point 9 °C
Humidity 88%
Rainfall 0 mm
Snow Depth Not available.
UV Not available.
Pollen Not available.
Air Quality Not available.
Flu Activity Not available.
METAR LFBZ 232200Z AUTO 15005KT 9999 NSC 11/06 Q1023

More Conditions Fewer Conditions

10-Day Weather Forecast

Almanac

Astronomy

Oct. 24, 2014 Rise Set
Actual Time 8:31 AM CEST 7:10 PM CEST
Civil Twilight 8:02 AM CEST 7:39 PM CEST
Nautical Twilight 7:29 AM CEST 8:12 PM CEST
Astronomical Twilight 6:56 AM CEST 8:45 PM CEST
Moon 8:56 AM CEST (10/24) 7:39 PM CEST (10/24)
Length of Visible Light 11h 36m
Length of Day
10h 38m
Tomorrow will be 2m 46s shorter.
New Moon, 0% of the Moon is Illuminated
Oct 23
New Moon
Oct 30
First Quarter
Nov 6
Full
Nov 14
Last Quarter
Nov 22
New

Yesterday's Extremes

Country Highs Country Lows

Community

WunderPhotos

Upload Photos

1,764,387 photos uploaded!

WunderBlogs® & News

Nearby

Snow Depth

Not available.

Earthquake Activity

City Distance Mag. Time & Date
No recent earthquake activity has been reported nearby.
Minimum magnitude displayed is 2.5.

Coastal Water Temperatures

Place Temperature
No Stations Reporting

Nearby Weather Stations